Time;durP1;ratioP1;P1;durP2;ratioP2;P2;SDS_P1;SDS_P2;PMS_P1;PMS_P2;Temp;Humidity;BMP_temperature;BMP_pressure;BME280_temperature;BME280_humidity;BME280_pressure;Samples;Min_cycle;Max_cycle;Signal;HPM_P1;HPM_P2
2021/11/10 05:00:45;;;;;;;11.98;6.50;;;4.50;99.90;;;;;;5780516;23;20244;-72
2021/11/10 05:03:11;;;;;;;6.93;6.32;;;4.50;99.90;;;;;;4952941;29;20264;-72
2021/11/10 05:05:38;;;;;;;9.05;6.15;;;4.40;99.90;;;;;;4947040;29;20217;-71
2021/11/10 05:08:05;;;;;;;8.27;6.45;;;4.40;99.90;;;;;;4934135;29;20353;-72
2021/11/10 05:10:32;;;;;;;7.30;6.60;;;4.40;99.90;;;;;;4932734;29;20218;-72
2021/11/10 05:12:59;;;;;;;10.57;7.18;;;4.40;99.90;;;;;;4930338;29;20537;-71
2021/11/10 05:15:26;;;;;;;8.65;7.28;;;4.40;99.90;;;;;;4933024;29;20206;-71
2021/11/10 05:17:54;;;;;;;10.35;6.85;;;4.40;99.90;;;;;;4959654;23;20232;-75
2021/11/10 05:20:21;;;;;;;7.65;5.88;;;4.40;99.90;;;;;;4972881;28;20275;-75
2021/11/10 05:22:47;;;;;;;9.60;6.75;;;4.40;99.90;;;;;;4965576;28;20665;-75
2021/11/10 05:25:14;;;;;;;7.32;6.05;;;4.40;99.90;;;;;;4965064;28;20205;-75
2021/11/10 05:27:41;;;;;;;9.27;7.50;;;4.40;99.90;;;;;;4952917;29;20232;-75
2021/11/10 05:30:10;;;;;;;9.35;7.20;;;4.40;99.90;;;;;;4954044;28;20208;-75
2021/11/10 05:32:37;;;;;;;8.65;6.70;;;4.30;99.90;;;;;;4972824;28;20212;-74
2021/11/10 05:35:06;;;;;;;8.90;7.45;;;4.30;99.90;;;;;;4964210;28;20205;-74
2021/11/10 05:37:33;;;;;;;9.02;7.70;;;4.30;99.90;;;;;;4952865;29;20284;-73
2021/11/10 05:40:00;;;;;;;12.32;7.75;;;4.30;99.90;;;;;;4957793;28;20327;-75
2021/11/10 05:42:27;;;;;;;9.00;7.20;;;4.30;99.90;;;;;;4952957;28;20209;-75
2021/11/10 05:44:54;;;;;;;12.10;7.45;;;4.30;99.90;;;;;;4954087;28;20251;-76
2021/11/10 05:47:21;;;;;;;12.13;7.82;;;4.30;99.90;;;;;;4964691;28;20627;-74
2021/11/10 05:49:48;;;;;;;9.80;7.68;;;4.30;99.90;;;;;;4953386;28;20280;-76
2021/11/10 05:52:16;;;;;;;10.07;8.25;;;4.30;99.90;;;;;;4953972;28;20552;-75
2021/11/10 05:54:43;;;;;;;10.15;7.60;;;4.20;99.90;;;;;;4955738;28;20686;-74
2021/11/10 05:57:12;;;;;;;11.35;8.18;;;4.20;99.90;;;;;;4971868;28;20343;-75
2021/11/10 05:59:39;;;;;;;9.73;6.95;;;4.20;99.90;;;;;;4965725;28;20229;-74
2021/11/10 06:02:06;;;;;;;11.52;7.43;;;4.20;99.90;;;;;;4954100;28;20212;-75
2021/11/10 06:04:33;;;;;;;8.02;6.93;;;4.20;99.90;;;;;;4953386;28;20703;-75
2021/11/10 06:07:00;;;;;;;10.80;8.63;;;4.20;99.90;;;;;;4971541;28;20684;-75
2021/11/10 06:09:28;;;;;;;8.98;8.10;;;4.20;99.90;;;;;;4971828;28;20212;-76
2021/11/10 06:11:55;;;;;;;12.27;9.30;;;4.20;99.90;;;;;;4971105;28;20208;-75
2021/11/10 06:14:23;;;;;;;14.38;8.43;;;4.10;99.90;;;;;;4968568;28;20215;-75
2021/11/10 06:16:50;;;;;;;9.23;7.53;;;4.10;99.90;;;;;;4954513;28;20205;-75
2021/11/10 06:19:16;;;;;;;9.27;7.53;;;4.10;99.90;;;;;;4952807;29;20217;-75
2021/11/10 06:21:45;;;;;;;13.20;7.75;;;4.10;99.90;;;;;;4953669;28;20272;-75
2021/11/10 06:24:11;;;;;;;15.30;8.60;;;4.10;99.90;;;;;;4952882;29;20209;-75
2021/11/10 06:26:39;;;;;;;18.75;9.23;;;4.10;99.90;;;;;;4966519;28;20296;-73
2021/11/10 06:29:06;;;;;;;11.27;8.40;;;4.10;99.90;;;;;;4969189;28;20293;-74
2021/11/10 06:31:33;;;;;;;13.32;8.00;;;4.00;99.90;;;;;;4962029;28;20209;-75
2021/11/10 06:34:00;;;;;;;14.13;6.75;;;4.00;99.90;;;;;;4962412;28;20236;-75
2021/11/10 06:36:27;;;;;;;14.02;7.40;;;4.00;99.90;;;;;;4959917;28;20213;-75
2021/11/10 06:38:54;;;;;;;10.45;7.40;;;4.00;99.90;;;;;;4962084;28;20309;-74
2021/11/10 06:41:21;;;;;;;18.13;8.65;;;4.00;99.90;;;;;;4971375;28;20313;-74
2021/11/10 06:43:50;;;;;;;12.93;7.70;;;4.00;99.90;;;;;;4971539;28;20205;-75
2021/11/10 06:46:18;;;;;;;15.57;9.90;;;4.00;99.90;;;;;;4969408;28;20260;-75
2021/11/10 06:48:45;;;;;;;11.70;8.55;;;4.00;99.90;;;;;;4954614;28;20229;-75
2021/11/10 06:51:14;;;;;;;10.63;8.05;;;4.00;99.90;;;;;;4952800;28;20228;-75
2021/11/10 06:53:41;;;;;;;13.00;8.30;;;4.00;99.90;;;;;;4953184;28;20202;-74
2021/11/10 06:56:08;;;;;;;12.38;8.70;;;4.00;99.90;;;;;;4955007;28;20213;-75
2021/11/10 06:58:34;;;;;;;13.98;8.85;;;4.00;99.90;;;;;;4951520;28;20229;-74
2021/11/10 07:01:03;;;;;;;12.20;8.45;;;4.00;99.90;;;;;;4954998;28;20237;-74
2021/11/10 07:03:30;;;;;;;11.75;9.20;;;4.00;99.90;;;;;;4956890;28;20232;-75
2021/11/10 07:05:57;;;;;;;10.18;8.63;;;4.00;99.90;;;;;;4960569;28;20590;-73
2021/11/10 07:08:23;;;;;;;11.80;8.90;;;4.00;99.90;;;;;;4968810;28;20331;-75
2021/11/10 07:10:50;;;;;;;15.20;8.68;;;4.00;99.90;;;;;;4966299;28;20217;-75
2021/11/10 07:13:17;;;;;;;12.52;9.20;;;4.10;99.90;;;;;;4966922;28;20595;-73
2021/11/10 07:15:43;;;;;;;11.10;9.68;;;4.10;99.90;;;;;;4966940;28;20209;-74
2021/11/10 07:18:11;;;;;;;15.98;10.43;;;4.10;99.90;;;;;;4955502;28;20327;-75
2021/11/10 07:20:38;;;;;;;9.48;8.50;;;4.10;99.90;;;;;;4958790;28;20296;-75
2021/11/10 07:23:05;;;;;;;14.75;11.23;;;4.10;99.90;;;;;;4973608;28;20224;-74
2021/11/10 07:25:32;;;;;;;46.13;25.40;;;4.10;99.90;;;;;;4956164;28;20267;-75
2021/11/10 07:27:59;;;;;;;108.07;60.80;;;4.20;99.90;;;;;;4961708;28;20236;-74
2021/11/10 07:30:26;;;;;;;16.65;13.75;;;4.20;99.90;;;;;;4965792;28;20235;-74
2021/11/10 07:32:53;;;;;;;114.85;64.68;;;4.20;99.90;;;;;;4955622;29;20221;-75
2021/11/10 07:35:21;;;;;;;21.38;16.17;;;4.30;99.90;;;;;;4955678;29;20707;-75
2021/11/10 07:37:48;;;;;;;23.95;18.13;;;4.30;99.90;;;;;;4955921;29;20222;-74
2021/11/10 07:40:17;;;;;;;20.45;15.45;;;4.30;99.90;;;;;;4956003;29;20595;-75
2021/11/10 07:42:45;;;;;;;33.28;26.92;;;4.40;99.90;;;;;;4954717;29;20210;-74
2021/11/10 07:45:16;;;;;;;27.67;22.52;;;4.40;99.90;;;;;;4955066;29;20217;-74
2021/11/10 07:47:45;;;;;;;17.27;15.40;;;4.40;99.90;;;;;;4954507;29;20225;-75
2021/11/10 07:50:14;;;;;;;16.98;12.30;;;4.50;99.90;;;;;;4954511;29;20208;-75
2021/11/10 07:52:42;;;;;;;14.60;12.07;;;4.50;99.90;;;;;;4955112;28;20217;-75
2021/11/10 07:55:10;;;;;;;19.60;9.80;;;4.50;99.90;;;;;;4955175;29;20217;-75
2021/11/10 07:57:37;;;;;;;22.00;14.93;;;4.60;99.90;;;;;;4967962;28;20252;-75
2021/11/10 08:00:07;;;;;;;15.52;9.57;;;4.60;99.90;;;;;;4968283;28;20247;-74
2021/11/10 08:02:34;;;;;;;15.93;9.15;;;4.60;99.90;;;;;;4960317;28;20216;-76
2021/11/10 08:05:01;;;;;;;12.93;10.70;;;4.70;99.90;;;;;;4961208;28;20213;-74
2021/11/10 08:07:27;;;;;;;16.52;10.25;;;4.70;99.90;;;;;;4963658;28;20312;-75
2021/11/10 08:09:55;;;;;;;13.55;9.25;;;4.70;99.90;;;;;;4954649;29;20617;-75
2021/11/10 08:12:22;;;;;;;18.45;12.13;;;4.80;99.90;;;;;;4955007;28;20197;-75
2021/11/10 08:14:49;;;;;;;13.63;8.10;;;4.80;99.90;;;;;;4961199;28;20205;-75
2021/11/10 08:17:16;;;;;;;12.07;9.20;;;4.90;99.90;;;;;;4956699;28;20291;-75
2021/11/10 08:19:43;;;;;;;12.50;9.07;;;4.90;99.90;;;;;;4955779;28;20209;-75
2021/11/10 08:22:10;;;;;;;11.60;10.30;;;5.00;99.90;;;;;;4954996;28;20264;-75
2021/11/10 08:24:36;;;;;;;13.55;8.95;;;5.10;99.90;;;;;;4969440;28;20204;-75
2021/11/10 08:27:05;;;;;;;12.38;10.35;;;5.30;99.90;;;;;;4962930;28;20721;-74
2021/11/10 08:29:32;;;;;;;14.65;11.88;;;5.50;99.90;;;;;;4952743;29;20217;-76
2021/11/10 08:31:59;;;;;;;13.70;10.57;;;5.60;99.90;;;;;;4953834;28;20216;-75
2021/11/10 08:34:25;;;;;;;12.93;9.85;;;5.70;99.90;;;;;;4955447;29;20198;-75
2021/11/10 08:36:52;;;;;;;12.25;9.95;;;5.70;99.90;;;;;;4955091;29;20210;-75
2021/11/10 08:39:19;;;;;;;14.95;10.73;;;5.70;99.90;;;;;;4955170;29;20205;-75
2021/11/10 08:41:47;;;;;;;13.32;11.23;;;5.70;99.90;;;;;;4955717;29;20240;-75
2021/11/10 08:44:16;;;;;;;10.30;7.88;;;5.70;99.90;;;;;;4956427;28;20704;-74
2021/11/10 08:46:43;;;;;;;9.32;8.38;;;5.80;99.90;;;;;;4957436;28;20643;-76
2021/11/10 08:49:11;;;;;;;11.60;9.63;;;5.80;99.90;;;;;;4963016;28;20263;-74
2021/11/10 08:51:38;;;;;;;8.68;7.55;;;5.90;99.90;;;;;;4978391;28;20215;-77
2021/11/10 08:54:06;;;;;;;9.05;7.85;;;6.00;99.90;;;;;;4976991;28;20200;-74
2021/11/10 08:56:34;;;;;;;11.65;8.40;;;6.20;99.90;;;;;;4958970;28;20596;-76
2021/11/10 08:59:02;;;;;;;9.20;7.72;;;6.20;99.90;;;;;;4964649;28;20233;-76
2021/11/10 09:01:31;;;;;;;12.15;8.23;;;6.20;99.90;;;;;;4976814;28;20231;-76
2021/11/10 09:03:57;;;;;;;9.90;8.35;;;6.20;99.90;;;;;;4976075;28;20240;-76
2021/11/10 09:06:24;;;;;;;16.38;13.30;;;6.20;99.90;;;;;;4958073;29;20244;-76
2021/11/10 09:08:51;;;;;;;16.60;14.88;;;6.40;99.90;;;;;;4958098;28;20613;-75
2021/11/10 09:11:18;;;;;;;21.08;16.35;;;6.40;99.90;;;;;;4973958;28;20291;-74
2021/11/10 09:13:45;;;;;;;14.75;10.85;;;6.50;99.90;;;;;;4961854;28;20241;-75
2021/11/10 09:16:12;;;;;;;26.42;20.75;;;6.50;99.90;;;;;;4971433;28;20212;-75
2021/11/10 09:18:40;;;;;;;14.45;12.43;;;6.50;99.90;;;;;;4962892;28;20312;-75
2021/11/10 09:21:09;;;;;;;28.42;19.33;;;6.60;99.90;;;;;;4954035;29;20221;-76
2021/11/10 09:23:36;;;;;;;17.60;13.77;;;6.70;99.90;;;;;;4954314;28;20751;-76
2021/11/10 09:26:03;;;;;;;14.70;9.45;;;6.80;99.90;;;;;;4969313;28;20213;-75
2021/11/10 09:28:31;;;;;;;21.38;15.60;;;6.90;99.90;;;;;;4967338;28;20233;-76
2021/11/10 09:30:58;;;;;;;11.88;8.77;;;6.90;99.90;;;;;;4959390;28;20776;-76
2021/11/10 09:33:26;;;;;;;6.80;5.88;;;7.00;99.90;;;;;;4967701;28;20216;-75
2021/11/10 09:35:55;;;;;;;6.75;6.15;;;7.00;99.90;;;;;;4978945;28;20216;-75
2021/11/10 09:38:23;;;;;;;9.27;6.25;;;7.10;99.90;;;;;;4970199;28;20247;-76
2021/11/10 09:40:50;;;;;;;11.50;9.43;;;7.20;99.90;;;;;;4961233;29;20240;-75
2021/11/10 09:43:18;;;;;;;9.02;6.38;;;7.30;99.90;;;;;;4966390;28;20228;-75
2021/11/10 09:45:46;;;;;;;7.78;6.80;;;7.30;99.90;;;;;;4964470;28;20213;-75
2021/11/10 09:48:14;;;;;;;6.70;6.07;;;7.30;99.90;;;;;;4973508;28;20256;-76
2021/11/10 09:50:45;;;;;;;9.05;6.10;;;7.40;99.90;;;;;;4973064;28;20530;-75
2021/11/10 09:53:14;;;;;;;10.80;7.80;;;7.50;99.90;;;;;;4973288;28;20240;-76
2021/11/10 09:55:42;;;;;;;7.22;6.50;;;7.50;99.90;;;;;;4970572;28;20211;-75
2021/11/10 09:58:09;;;;;;;7.88;6.00;;;7.50;99.90;;;;;;4954197;28;20228;-76
2021/11/10 10:00:38;;;;;;;6.13;5.53;;;7.50;99.90;;;;;;4957588;28;20578;-76
2021/11/10 10:03:05;;;;;;;7.53;6.88;;;7.60;99.90;;;;;;4966290;28;20650;-76
2021/11/10 10:05:35;;;;;;;13.60;10.30;;;7.70;99.90;;;;;;4955051;28;20209;-76
2021/11/10 10:08:03;;;;;;;13.13;8.48;;;7.80;99.90;;;;;;4953432;28;20230;-76
2021/11/10 10:10:33;;;;;;;12.77;8.98;;;7.80;99.90;;;;;;4953411;28;20251;-77
2021/11/10 10:13:02;;;;;;;10.35;7.32;;;8.00;99.90;;;;;;4953428;29;20216;-76
2021/11/10 10:15:32;;;;;;;6.32;5.40;;;8.10;99.90;;;;;;4952869;29;20213;-76
2021/11/10 10:17:59;;;;;;;10.20;6.18;;;8.20;99.90;;;;;;4954393;29;20264;-76
2021/11/10 10:20:29;;;;;;;5.50;5.00;;;8.20;99.90;;;;;;4953711;28;20228;-76
2021/11/10 10:22:58;;;;;;;5.43;4.82;;;8.30;99.90;;;;;;4953301;29;20248;-76
2021/11/10 10:25:40;;;;;;;7.10;6.43;;;8.40;99.90;;;;;;4965852;28;20215;-76
2021/11/10 10:28:09;;;;;;;8.65;6.18;;;8.40;99.90;;;;;;4972421;28;20228;-76
2021/11/10 10:30:39;;;;;;;7.95;5.55;;;8.50;99.90;;;;;;4958502;28;20209;-75
2021/11/10 10:33:07;;;;;;;5.30;4.80;;;8.60;99.90;;;;;;4955878;29;20228;-75
2021/11/10 10:35:38;;;;;;;6.63;5.93;;;8.70;99.90;;;;;;4961127;28;20211;-75
2021/11/10 10:38:07;;;;;;;7.75;5.63;;;8.70;99.90;;;;;;4965802;28;20229;-76
2021/11/10 10:40:37;;;;;;;9.00;6.03;;;8.80;99.90;;;;;;4966354;28;20217;-75
2021/11/10 10:43:04;;;;;;;5.50;5.10;;;9.00;99.90;;;;;;4964827;28;20228;-75
2021/11/10 10:45:37;;;;;;;6.13;5.53;;;9.00;99.90;;;;;;4970183;28;20259;-73
2021/11/10 10:48:06;;;;;;;5.45;4.93;;;9.10;99.90;;;;;;4962179;28;20237;-73
2021/11/10 10:50:46;;;;;;;11.52;5.05;;;9.20;99.90;;;;;;4964141;28;20669;-73
2021/11/10 10:53:14;;;;;;;6.93;5.03;;;9.30;99.90;;;;;;4953097;29;20675;-73
2021/11/10 10:55:44;;;;;;;9.25;5.78;;;9.40;99.90;;;;;;4966285;28;20230;-73
2021/11/10 10:58:12;;;;;;;5.00;4.53;;;9.40;99.90;;;;;;4956842;28;20232;-73
2021/11/10 11:00:41;;;;;;;6.82;5.53;;;9.40;99.90;;;;;;4967127;28;20208;-74
2021/11/10 11:03:30;;;;;;;6.68;5.35;;;9.50;99.90;;;;;;4973737;28;20298;-73
2021/11/10 11:06:00;;;;;;;9.88;8.50;;;9.40;99.90;;;;;;4965349;28;20224;-72
2021/11/10 11:08:37;;;;;;;10.20;9.23;;;9.50;99.90;;;;;;4962688;28;20229;-74
2021/11/10 11:11:36;;;;;;;12.63;10.88;;;9.50;99.90;;;;;;4970567;28;20201;-75
2021/11/10 11:14:05;;;;;;;6.50;5.35;;;9.50;99.90;;;;;;4956157;29;20326;-73
2021/11/10 11:16:38;;;;;;;7.38;5.70;;;9.60;99.90;;;;;;4955686;29;20213;-74
2021/11/10 11:19:19;;;;;;;7.75;6.15;;;9.60;99.90;;;;;;4955525;29;20233;-74
2021/11/10 11:21:51;;;;;;;7.20;5.90;;;9.60;99.90;;;;;;4955206;28;20224;-74
2021/11/10 11:24:45;;;;;;;9.18;5.90;;;9.70;99.90;;;;;;4957722;28;20304;-74
2021/11/10 11:27:25;;;;;;;6.38;5.18;;;9.70;99.90;;;;;;4958671;28;20240;-74
2021/11/10 11:30:02;;;;;;;6.60;6.00;;;9.80;99.90;;;;;;4963311;28;20209;-75
2021/11/10 11:32:31;;;;;;;8.88;6.78;;;9.80;99.90;;;;;;4956267;28;20205;-74
2021/11/10 11:35:02;;;;;;;8.38;5.18;;;9.80;99.90;;;;;;4966932;28;20209;-75
2021/11/10 11:37:29;;;;;;;6.15;5.55;;;9.80;99.90;;;;;;4957411;28;20229;-75
2021/11/10 11:39:58;;;;;;;5.45;4.85;;;9.90;99.90;;;;;;4962853;28;20213;-74
2021/11/10 11:42:28;;;;;;;12.63;5.78;;;9.90;99.90;;;;;;4958938;28;20312;-75
2021/11/10 11:44:56;;;;;;;5.55;4.90;;;9.90;99.90;;;;;;4959093;28;20618;-75
2021/11/10 11:47:24;;;;;;;6.93;5.45;;;10.00;99.90;;;;;;4961145;28;20252;-75
2021/11/10 11:49:51;;;;;;;5.85;5.35;;;10.10;99.90;;;;;;4964490;28;20206;-75
2021/11/10 11:52:21;;;;;;;5.78;5.28;;;10.10;99.90;;;;;;4959974;28;20215;-74
2021/11/10 11:54:51;;;;;;;5.75;4.95;;;10.10;99.90;;;;;;4955724;28;20700;-75
2021/11/10 11:57:22;;;;;;;5.45;5.07;;;10.10;99.90;;;;;;4964484;28;20216;-74
2021/11/10 11:59:53;;;;;;;10.57;6.75;;;10.20;99.90;;;;;;4975007;28;20549;-73
2021/11/10 12:02:22;;;;;;;7.10;5.30;;;10.20;99.90;;;;;;4966866;28;20243;-73
2021/11/10 12:04:49;;;;;;;7.30;6.65;;;10.20;99.90;;;;;;4972340;28;20211;-74
2021/11/10 12:07:46;;;;;;;5.13;4.63;;;10.20;99.90;;;;;;4973672;28;20229;-72
2021/11/10 12:10:36;;;;;;;7.20;6.50;;;10.30;99.90;;;;;;4958302;28;20196;-73
2021/11/10 12:13:13;;;;;;;5.13;4.57;;;10.20;99.90;;;;;;4974701;28;20228;-73
2021/11/10 12:16:17;;;;;;;7.97;5.57;;;10.30;99.90;;;;;;4960673;28;20677;-74
2021/11/10 12:19:01;;;;;;;7.88;5.85;;;10.30;99.90;;;;;;4967600;28;20271;-72
2021/11/10 12:21:34;;;;;;;7.47;6.95;;;10.40;99.90;;;;;;4958400;28;20312;-74
2021/11/10 12:24:12;;;;;;;5.20;4.90;;;10.40;99.90;;;;;;4969196;28;20242;-73
2021/11/10 12:27:09;;;;;;;6.68;6.07;;;10.40;99.90;;;;;;4974172;28;20196;-73
2021/11/10 12:29:40;;;;;;;6.28;4.80;;;10.40;99.90;;;;;;4952677;29;20241;-74
2021/11/10 12:32:07;;;;;;;9.98;8.98;;;10.40;99.90;;;;;;4954140;29;20205;-73
2021/11/10 12:34:37;;;;;;;7.50;5.78;;;10.30;99.90;;;;;;4954947;29;20213;-74
2021/11/10 12:37:05;;;;;;;6.53;6.03;;;10.30;99.90;;;;;;4958527;28;20221;-73
2021/11/10 12:39:36;;;;;;;6.60;6.00;;;10.30;99.90;;;;;;4958888;28;20204;-74
2021/11/10 12:42:03;;;;;;;10.98;8.80;;;10.30;99.90;;;;;;4958913;28;21020;-74
2021/11/10 12:44:31;;;;;;;9.82;8.95;;;10.20;99.90;;;;;;4963989;28;20232;-74
2021/11/10 12:46:58;;;;;;;8.77;5.53;;;10.20;99.90;;;;;;4964155;28;20553;-74
2021/11/10 12:49:26;;;;;;;9.63;8.82;;;10.20;99.90;;;;;;4961931;28;20216;-74
2021/11/10 12:52:15;;;;;;;6.28;5.68;;;10.20;99.90;;;;;;4956263;28;20284;-74
2021/11/10 12:54:44;;;;;;;7.05;4.80;;;10.20;99.90;;;;;;4969871;28;20220;-73
2021/11/10 12:57:11;;;;;;;6.88;5.15;;;10.20;99.90;;;;;;4955719;28;20240;-74
2021/11/10 12:59:40;;;;;;;4.88;4.30;;;10.20;99.90;;;;;;4959085;28;20211;-73
2021/11/10 13:02:15;;;;;;;5.93;5.40;;;10.20;99.90;;;;;;4964681;28;21081;-73
2021/11/10 13:04:46;;;;;;;9.45;5.22;;;10.30;99.90;;;;;;4965800;28;20212;-73
2021/11/10 13:07:19;;;;;;;8.32;5.28;;;10.30;99.90;;;;;;4962917;28;20252;-74
2021/11/10 13:09:49;;;;;;;4.93;4.38;;;10.30;99.90;;;;;;4967439;28;20287;-74
2021/11/10 13:12:17;;;;;;;11.02;5.00;;;10.40;99.90;;;;;;4973252;28;20227;-74
2021/11/10 13:14:47;;;;;;;6.20;4.15;;;10.40;99.90;;;;;;4965182;28;20667;-73
2021/11/10 13:17:16;;;;;;;4.93;4.45;;;10.40;99.90;;;;;;4953737;28;20252;-75
2021/11/10 13:19:46;;;;;;;5.90;5.35;;;10.40;99.90;;;;;;4954607;29;20733;-75
2021/11/10 13:22:19;;;;;;;9.48;6.53;;;10.40;99.90;;;;;;4953585;29;20328;-76
2021/11/10 13:24:48;;;;;;;8.63;6.15;;;10.40;99.90;;;;;;4961831;28;20205;-75
2021/11/10 13:27:16;;;;;;;6.00;5.47;;;10.40;99.90;;;;;;4966748;28;20307;-76
2021/11/10 13:29:50;;;;;;;5.55;5.07;;;10.30;99.90;;;;;;4969255;28;20201;-75
2021/11/10 13:32:19;;;;;;;5.07;4.57;;;10.30;99.90;;;;;;4953729;29;20204;-76
2021/11/10 13:34:46;;;;;;;8.35;5.18;;;10.30;99.90;;;;;;4953882;29;20679;-76
2021/11/10 13:37:16;;;;;;;9.27;5.07;;;10.30;99.90;;;;;;4953552;29;20714;-75
2021/11/10 13:39:43;;;;;;;7.35;5.07;;;10.20;99.90;;;;;;4953640;29;20221;-72
2021/11/10 13:42:14;;;;;;;5.53;5.30;;;10.20;99.90;;;;;;4963496;28;20592;-75
2021/11/10 13:44:41;;;;;;;7.68;6.05;;;10.10;99.90;;;;;;4973117;28;20208;-74
2021/11/10 13:47:10;;;;;;;5.55;5.05;;;10.10;99.90;;;;;;4958776;28;20229;-73
2021/11/10 13:49:39;;;;;;;4.82;4.45;;;10.00;99.90;;;;;;4953737;28;20209;-75
2021/11/10 13:52:09;;;;;;;6.10;5.50;;;10.00;99.90;;;;;;4953804;29;20220;-75
2021/11/10 13:54:44;;;;;;;9.00;4.45;;;10.00;99.90;;;;;;4954133;29;20237;-74
2021/11/10 13:57:16;;;;;;;11.75;6.07;;;10.00;99.90;;;;;;4953451;28;20269;-74
2021/11/10 13:59:45;;;;;;;11.48;6.78;;;9.90;99.90;;;;;;4966839;28;20627;-75
2021/11/10 14:02:14;;;;;;;6.40;5.15;;;10.00;99.90;;;;;;4953059;29;20244;-76
2021/11/10 14:04:48;;;;;;;8.85;5.80;;;10.00;99.90;;;;;;4954324;29;20220;-75
2021/11/10 14:07:17;;;;;;;9.63;6.75;;;10.10;99.90;;;;;;4953164;29;20271;-74
2021/11/10 14:09:54;;;;;;;12.30;9.80;;;10.20;99.90;;;;;;4952794;28;20213;-74
2021/11/10 14:12:27;;;;;;;11.68;7.07;;;10.20;99.90;;;;;;4952574;29;20256;-75
2021/11/10 14:14:55;;;;;;;10.30;5.97;;;10.30;99.90;;;;;;4956445;28;20193;-74
2021/11/10 14:17:23;;;;;;;7.00;5.65;;;10.30;99.90;;;;;;4954856;29;20309;-74
2021/11/10 14:19:58;;;;;;;7.70;6.00;;;10.40;99.90;;;;;;4953052;29;20212;-74
2021/11/10 14:22:27;;;;;;;6.38;4.53;;;10.40;99.90;;;;;;4952798;29;20288;-74
2021/11/10 14:24:55;;;;;;;7.10;5.80;;;10.40;99.90;;;;;;4953135;29;20660;-76
2021/11/10 14:27:28;;;;;;;6.03;4.85;;;10.40;99.90;;;;;;4952224;29;20281;-73
2021/11/10 14:30:09;;;;;;;5.95;5.07;;;10.50;99.90;;;;;;4953932;28;20200;-74
2021/11/10 14:32:39;;;;;;;5.43;5.10;;;10.60;99.90;;;;;;4953003;28;20205;-74
2021/11/10 14:35:09;;;;;;;4.70;4.30;;;10.60;99.90;;;;;;4972238;28;20224;-74
2021/11/10 14:37:36;;;;;;;4.32;4.00;;;10.60;99.90;;;;;;4971010;28;20232;-74
2021/11/10 14:40:33;;;;;;;5.57;4.90;;;10.60;99.90;;;;;;4953208;29;20213;-74
2021/11/10 14:43:00;;;;;;;5.32;4.65;;;10.50;99.90;;;;;;4949386;29;20237;-75
2021/11/10 14:45:28;;;;;;;6.28;5.70;;;10.50;99.90;;;;;;4952183;29;20209;-74
2021/11/10 14:47:57;;;;;;;6.15;5.55;;;10.60;99.90;;;;;;4959709;28;20225;-75
2021/11/10 14:50:27;;;;;;;4.80;4.40;;;10.50;99.90;;;;;;4962914;28;20219;-74
2021/11/10 14:53:14;;;;;;;6.70;4.20;;;10.50;99.90;;;;;;4969550;28;20207;-74
2021/11/10 14:55:45;;;;;;;5.47;4.50;;;10.50;99.90;;;;;;4959121;28;20542;-74
2021/11/10 14:58:14;;;;;;;8.75;5.00;;;10.50;99.90;;;;;;4954082;28;20319;-74
2021/11/10 15:00:41;;;;;;;6.47;5.20;;;10.50;99.90;;;;;;4955139;29;20211;-74
2021/11/10 15:03:19;;;;;;;6.43;5.22;;;10.50;99.90;;;;;;4961289;28;20232;-74
2021/11/10 15:05:46;;;;;;;5.05;4.65;;;10.50;99.90;;;;;;4974955;28;20216;-75
2021/11/10 15:08:13;;;;;;;6.13;5.10;;;10.50;99.90;;;;;;4975119;28;20255;-75
2021/11/10 15:10:40;;;;;;;8.15;5.35;;;10.50;99.90;;;;;;4970988;28;20521;-75
2021/11/10 15:13:12;;;;;;;7.30;5.40;;;10.40;99.90;;;;;;4972677;28;20255;-75
2021/11/10 15:15:40;;;;;;;6.30;5.03;;;10.50;99.90;;;;;;4968709;28;20205;-76
2021/11/10 15:18:08;;;;;;;6.30;5.60;;;10.40;99.90;;;;;;4970495;28;20228;-75
2021/11/10 15:20:35;;;;;;;6.60;6.00;;;10.40;99.90;;;;;;4972810;28;20204;-73
2021/11/10 15:23:05;;;;;;;6.22;5.63;;;10.40;99.90;;;;;;4966523;28;20227;-76
2021/11/10 15:25:34;;;;;;;10.70;8.98;;;10.40;99.90;;;;;;4965247;28;20197;-75
2021/11/10 15:28:04;;;;;;;6.95;6.03;;;10.40;99.90;;;;;;4956435;29;20236;-74
2021/11/10 15:30:34;;;;;;;5.85;5.35;;;10.40;99.90;;;;;;4955602;29;20217;-75
2021/11/10 15:33:04;;;;;;;5.57;4.95;;;10.30;99.90;;;;;;4955358;29;20233;-74
2021/11/10 15:35:36;;;;;;;4.38;4.07;;;10.40;99.90;;;;;;4957577;29;20307;-75
2021/11/10 15:38:04;;;;;;;6.07;4.30;;;10.30;99.90;;;;;;4958084;28;20222;-75
2021/11/10 15:40:31;;;;;;;6.55;6.03;;;10.30;99.90;;;;;;4963540;28;20212;-75
2021/11/10 15:42:58;;;;;;;6.25;5.40;;;10.20;99.90;;;;;;4961065;28;20237;-75
2021/11/10 15:45:25;;;;;;;6.95;6.25;;;10.20;99.90;;;;;;4966643;28;20656;-74
2021/11/10 15:47:53;;;;;;;4.25;4.05;;;10.30;99.90;;;;;;4966650;28;20653;-75
2021/11/10 15:50:20;;;;;;;6.30;5.80;;;10.20;99.90;;;;;;4956424;29;20582;-73
2021/11/10 15:52:48;;;;;;;4.40;4.10;;;10.20;99.90;;;;;;4956902;29;20220;-74
2021/11/10 15:55:17;;;;;;;5.35;4.95;;;10.20;99.90;;;;;;4957644;29;20210;-74
2021/11/10 15:57:44;;;;;;;4.05;3.80;;;10.10;99.90;;;;;;4957054;29;20229;-74
2021/11/10 16:00:14;;;;;;;5.40;4.65;;;10.10;99.90;;;;;;4957095;29;20679;-74
2021/11/10 16:02:43;;;;;;;5.88;4.55;;;10.10;99.90;;;;;;4961610;28;20260;-74
2021/11/10 16:05:14;;;;;;;5.10;4.70;;;10.10;99.90;;;;;;4974540;28;20285;-74
2021/11/10 16:07:41;;;;;;;5.88;5.30;;;10.00;99.90;;;;;;4974284;28;20248;-75
2021/11/10 16:10:10;;;;;;;9.70;9.00;;;10.10;99.90;;;;;;4976264;28;20201;-74
2021/11/10 16:12:38;;;;;;;6.20;4.88;;;10.00;99.90;;;;;;4974754;28;20201;-74
2021/11/10 16:15:07;;;;;;;7.35;5.60;;;10.00;99.90;;;;;;4975670;28;20209;-74
2021/11/10 16:17:34;;;;;;;8.20;7.63;;;10.00;99.90;;;;;;4957056;28;20315;-74
2021/11/10 16:20:00;;;;;;;6.65;6.25;;;10.00;99.90;;;;;;4968862;28;20208;-75
2021/11/10 16:22:28;;;;;;;7.82;6.95;;;10.00;99.90;;;;;;4970579;28;20208;-74
2021/11/10 16:24:55;;;;;;;10.82;8.38;;;10.00;99.90;;;;;;4959377;28;20202;-75
2021/11/10 16:27:25;;;;;;;8.98;8.00;;;10.00;99.90;;;;;;4956440;29;20236;-74
2021/11/10 16:29:55;;;;;;;6.95;6.25;;;9.90;99.90;;;;;;4956477;29;20220;-74
2021/11/10 16:32:40;;;;;;;9.00;7.43;;;9.90;99.90;;;;;;4956489;28;20321;-74
2021/11/10 16:35:10;;;;;;;9.88;7.55;;;9.90;99.90;;;;;;4964428;28;20209;-74
2021/11/10 16:37:40;;;;;;;9.13;7.95;;;9.90;99.90;;;;;;4965494;28;20341;-74
2021/11/10 16:40:08;;;;;;;11.52;7.97;;;9.90;99.90;;;;;;4961046;28;20324;-74
2021/11/10 16:42:35;;;;;;;10.60;8.93;;;9.80;99.90;;;;;;4955427;29;20209;-74
2021/11/10 16:45:02;;;;;;;13.52;10.95;;;9.80;99.90;;;;;;4967218;28;20216;-74
2021/11/10 16:47:29;;;;;;;14.05;10.18;;;9.80;99.90;;;;;;4975231;28;20239;-74
2021/11/10 16:49:56;;;;;;;12.93;11.55;;;9.70;99.90;;;;;;4973262;28;20205;-75
2021/11/10 16:52:22;;;;;;;11.45;8.88;;;9.70;99.90;;;;;;4958601;28;20209;-68
2021/11/10 16:54:52;;;;;;;10.10;7.63;;;9.70;99.90;;;;;;4965202;28;20308;-74
2021/11/10 16:57:19;;;;;;;31.17;19.80;;;9.70;99.90;;;;;;4957106;28;20352;-76
2021/11/10 16:59:46;;;;;;;6.68;6.07;;;9.70;99.90;;;;;;4976298;28;20223;-74
2021/11/10 17:02:13;;;;;;;7.35;5.60;;;9.70;99.90;;;;;;4966934;28;20205;-73
2021/11/10 17:04:40;;;;;;;7.40;6.57;;;9.70;99.90;;;;;;4975145;28;20236;-75
2021/11/10 17:07:07;;;;;;;16.95;11.38;;;9.70;99.90;;;;;;4968565;28;20324;-74
2021/11/10 17:09:34;;;;;;;15.02;13.30;;;9.70;99.90;;;;;;4955390;29;20214;-76
2021/11/10 17:12:02;;;;;;;8.40;7.70;;;9.60;99.90;;;;;;4957016;28;20247;-75
2021/11/10 17:14:29;;;;;;;8.50;7.10;;;9.70;99.90;;;;;;4972923;28;20205;-74
2021/11/10 17:16:56;;;;;;;7.13;6.50;;;9.60;99.90;;;;;;4961640;28;20213;-76
2021/11/10 17:19:22;;;;;;;8.60;6.30;;;9.60;99.90;;;;;;4968145;28;20283;-75
2021/11/10 17:21:49;;;;;;;7.40;6.60;;;9.70;99.90;;;;;;4971888;28;20219;-74
2021/11/10 17:24:16;;;;;;;9.73;7.75;;;9.70;99.90;;;;;;4973924;28;20250;-75
2021/11/10 17:26:43;;;;;;;8.85;7.53;;;9.60;99.90;;;;;;4970114;28;20219;-72
2021/11/10 17:29:11;;;;;;;8.10;6.78;;;9.60;99.90;;;;;;4969060;28;20287;-75
2021/11/10 17:31:39;;;;;;;7.43;6.40;;;9.60;99.90;;;;;;4953436;29;20763;-75
2021/11/10 17:34:05;;;;;;;11.40;9.70;;;9.60;99.90;;;;;;4954203;29;20296;-73
2021/11/10 17:36:32;;;;;;;10.88;9.82;;;9.60;99.90;;;;;;4953696;29;20209;-67
2021/11/10 17:39:01;;;;;;;10.82;9.40;;;9.60;99.90;;;;;;4953618;29;20240;-72
2021/11/10 17:41:27;;;;;;;29.70;18.23;;;9.60;99.90;;;;;;4954966;29;20630;-75
2021/11/10 17:43:54;;;;;;;26.23;19.70;;;9.60;99.90;;;;;;4955192;29;20244;-75
2021/11/10 17:46:22;;;;;;;35.85;26.30;;;9.60;99.90;;;;;;4954878;29;20213;-74
2021/11/10 17:48:49;;;;;;;12.07;10.88;;;9.60;99.90;;;;;;4955290;29;20221;-75
2021/11/10 17:51:16;;;;;;;10.15;8.73;;;9.60;99.90;;;;;;4953430;29;20201;-75
2021/11/10 17:53:44;;;;;;;17.77;11.25;;;9.60;99.90;;;;;;4953271;29;20248;-75
2021/11/10 17:56:10;;;;;;;21.08;16.95;;;9.60;99.90;;;;;;4952863;29;20233;-75
2021/11/10 17:58:37;;;;;;;13.55;12.25;;;9.60;99.90;;;;;;4955449;29;20229;-74